LHFH 150803Z 29300KT 07/04 Q1030 =



----